createdAt,value
2023-04-20T00:00:27.983Z,23.06
2023-04-20T00:01:28.002Z,23.05
2023-04-20T00:02:28.181Z,23.05
2023-04-20T00:03:28.298Z,23.05
2023-04-20T00:04:28.118Z,23.05
2023-04-20T00:05:28.229Z,23.03
2023-04-20T00:06:28.152Z,23.03
2023-04-20T00:07:28.170Z,23.05
2023-04-20T00:08:28.238Z,23.03
2023-04-20T00:09:28.268Z,23.05
2023-04-20T00:10:28.278Z,23.05
2023-04-20T00:11:28.334Z,23.03
2023-04-20T00:12:28.335Z,23.03
2023-04-20T00:13:28.366Z,23.03
2023-04-20T00:14:28.397Z,23.03
2023-04-20T00:15:28.424Z,23.02
2023-04-20T00:16:28.457Z,23.03
2023-04-20T00:17:28.543Z,23.05
2023-04-20T00:18:28.550Z,23.03
2023-04-20T00:19:28.557Z,23.03
2023-04-20T00:20:28.578Z,23.02
2023-04-20T00:21:28.623Z,23.02
2023-04-20T00:22:28.662Z,23.03
2023-04-20T00:23:28.733Z,23.02
2023-04-20T00:24:28.742Z,23.05
2023-04-20T00:25:28.750Z,23.03
2023-04-20T00:26:28.776Z,23.02
2023-04-20T00:27:28.805Z,23.03
2023-04-20T00:28:28.871Z,23.03
2023-04-20T00:29:28.886Z,23.03
2023-04-20T00:30:28.901Z,23.03
2023-04-20T00:31:28.994Z,23.03
2023-04-20T00:32:29.023Z,23.03
2023-04-20T00:33:29.021Z,23.02
2023-04-20T00:34:29.088Z,23.03
2023-04-20T00:35:29.092Z,23.03
2023-04-20T00:36:29.099Z,23.01
2023-04-20T00:37:29.136Z,23.01
2023-04-20T00:38:29.204Z,23.02
2023-04-20T00:39:29.208Z,23.01
2023-04-20T00:40:29.244Z,23.01
2023-04-20T00:41:29.318Z,23.01
2023-04-20T00:42:29.329Z,23.02
2023-04-20T00:43:29.350Z,23.01
2023-04-20T00:44:29.367Z,23.01
2023-04-20T00:45:29.381Z,23.01
2023-04-20T00:46:29.496Z,23.01
2023-04-20T00:47:29.499Z,23.02
2023-04-20T00:48:29.489Z,23.01
2023-04-20T00:49:29.523Z,22.98
2023-04-20T00:50:29.570Z,23.01
2023-04-20T00:51:29.602Z,23.01
2023-04-20T00:52:29.664Z,23.01
2023-04-20T00:53:29.741Z,22.99
2023-04-20T00:54:29.725Z,22.99
2023-04-20T00:55:29.772Z,22.99
2023-04-20T00:56:29.798Z,23.01
2023-04-20T00:57:29.852Z,22.99
2023-04-20T00:58:29.919Z,23.01
2023-04-20T00:59:29.926Z,23.01
2023-04-20T01:00:29.957Z,22.99
2023-04-20T01:01:30.067Z,22.98
2023-04-20T01:02:30.185Z,22.99
2023-04-20T01:03:30.283Z,23.01
2023-04-20T01:04:30.239Z,22.99
2023-04-20T01:05:30.181Z,22.99
2023-04-20T01:06:30.195Z,23.02
2023-04-20T01:07:30.240Z,23.01
2023-04-20T01:08:30.333Z,22.98
2023-04-20T01:09:30.339Z,22.99
2023-04-20T01:10:30.388Z,22.98
2023-04-20T01:11:30.417Z,22.98
2023-04-20T01:12:30.448Z,22.98
2023-04-20T01:13:30.488Z,22.99
2023-04-20T01:14:30.524Z,22.98
2023-04-20T01:15:30.579Z,22.98
2023-04-20T01:16:30.708Z,22.98
2023-04-20T01:17:30.678Z,22.96
2023-04-20T01:18:30.709Z,22.96
2023-04-20T01:19:30.766Z,22.96
2023-04-20T01:20:30.785Z,22.98
2023-04-20T01:21:30.841Z,22.98
2023-04-20T01:22:30.858Z,22.96
2023-04-20T01:23:30.955Z,22.96
2023-04-20T01:24:30.964Z,22.99
2023-04-20T01:25:30.993Z,22.99
2023-04-20T01:26:31.022Z,22.98
2023-04-20T01:27:31.072Z,22.96
2023-04-20T01:28:31.114Z,22.96
2023-04-20T01:29:31.177Z,22.98
2023-04-20T01:30:31.199Z,22.98
2023-04-20T01:31:31.310Z,22.99
2023-04-20T01:32:31.358Z,22.95
2023-04-20T01:33:31.346Z,22.96
2023-04-20T01:34:31.380Z,22.96
2023-04-20T01:35:31.449Z,22.96
2023-04-20T01:36:31.448Z,22.95
2023-04-20T01:37:31.515Z,22.99
2023-04-20T01:38:31.566Z,22.96
2023-04-20T01:39:31.642Z,22.96
2023-04-20T01:40:31.638Z,22.93
2023-04-20T01:41:31.657Z,22.93
2023-04-20T01:42:31.722Z,22.96
2023-04-20T01:43:31.787Z,22.95
2023-04-20T01:44:31.791Z,22.95
2023-04-20T01:45:31.818Z,22.93
2023-04-20T01:46:31.930Z,22.93
2023-04-20T01:47:31.940Z,22.96
2023-04-20T01:48:31.961Z,22.92
2023-04-20T01:49:32.008Z,22.95
2023-04-20T01:50:32.083Z,22.96
2023-04-20T01:51:32.075Z,22.96
2023-04-20T01:52:32.120Z,22.95
2023-04-20T01:53:32.196Z,22.93
2023-04-20T01:54:32.213Z,22.92
2023-04-20T01:55:32.272Z,22.95
2023-04-20T01:56:32.310Z,22.95
2023-04-20T01:57:32.326Z,22.93
2023-04-20T01:58:32.386Z,22.95
2023-04-20T01:59:32.420Z,22.95
2023-04-20T02:00:32.530Z,22.96
2023-04-20T02:01:32.497Z,22.95
2023-04-20T02:02:32.709Z,22.92
2023-04-20T02:03:32.785Z,22.96
2023-04-20T02:04:32.641Z,22.95
2023-04-20T02:05:32.670Z,22.95
2023-04-20T02:06:32.707Z,22.96
2023-04-20T02:07:32.757Z,22.95
2023-04-20T02:08:32.846Z,22.93
2023-04-20T02:09:32.858Z,22.93
2023-04-20T02:10:32.852Z,22.95
2023-04-20T02:11:32.896Z,22.95
2023-04-20T02:12:32.956Z,22.95
2023-04-20T02:13:32.993Z,22.95
2023-04-20T02:14:33.030Z,22.95
2023-04-20T02:15:33.072Z,22.93
2023-04-20T02:16:33.150Z,22.93
2023-04-20T02:17:33.199Z,22.93
2023-04-20T02:18:33.219Z,22.92
2023-04-20T02:19:33.227Z,22.93
2023-04-20T02:20:33.282Z,22.93
2023-04-20T02:21:33.322Z,22.92
2023-04-20T02:22:33.346Z,22.95
2023-04-20T02:23:33.391Z,22.93
2023-04-20T02:24:33.438Z,22.93
2023-04-20T02:25:33.490Z,22.92
2023-04-20T02:26:33.515Z,22.93
2023-04-20T02:27:33.562Z,22.92
2023-04-20T02:28:33.654Z,22.91
2023-04-20T02:29:33.658Z,22.93
2023-04-20T02:30:33.688Z,22.95
2023-04-20T02:31:33.872Z,22.92
2023-04-20T02:32:33.790Z,22.93
2023-04-20T02:33:33.830Z,22.93
2023-04-20T02:34:33.863Z,22.93
2023-04-20T02:35:33.899Z,22.89
2023-04-20T02:36:33.945Z,22.92
2023-04-20T02:37:33.983Z,22.91
2023-04-20T02:38:34.031Z,22.92
2023-04-20T02:39:34.101Z,22.91
2023-04-20T02:40:34.118Z,22.91
2023-04-20T02:41:34.176Z,22.91
2023-04-20T02:42:34.196Z,22.91
2023-04-20T02:43:34.269Z,22.91
2023-04-20T02:44:34.296Z,22.92
2023-04-20T02:45:34.343Z,22.89
2023-04-20T02:46:34.508Z,22.91
2023-04-20T02:47:34.443Z,22.91
2023-04-20T02:48:34.479Z,22.92
2023-04-20T02:49:34.521Z,22.89
2023-04-20T02:50:34.552Z,22.91
2023-04-20T02:51:34.596Z,22.91
2023-04-20T02:52:34.678Z,22.91
2023-04-20T02:53:34.722Z,22.89
2023-04-20T02:54:34.755Z,22.92
2023-04-20T02:55:34.808Z,22.89
2023-04-20T02:56:34.833Z,22.86
2023-04-20T02:57:34.883Z,22.89
2023-04-20T02:58:34.932Z,22.89
2023-04-20T02:59:34.985Z,22.91
2023-04-20T03:00:35.007Z,22.89
2023-04-20T03:01:35.116Z,22.89
2023-04-20T03:02:35.193Z,22.89
2023-04-20T03:03:35.282Z,22.89
2023-04-20T03:04:35.354Z,22.89
2023-04-20T03:05:35.258Z,22.88
2023-04-20T03:06:35.323Z,22.86
2023-04-20T03:07:35.362Z,22.88
2023-04-20T03:08:35.482Z,22.88
2023-04-20T03:09:35.477Z,22.88
2023-04-20T03:10:35.500Z,22.91
2023-04-20T03:11:35.545Z,22.89
2023-04-20T03:12:35.641Z,22.89
2023-04-20T03:13:35.674Z,22.88
2023-04-20T03:14:35.677Z,22.85
2023-04-20T03:15:35.770Z,22.86
2023-04-20T03:16:35.840Z,22.88
2023-04-20T03:17:35.856Z,22.85
2023-04-20T03:18:35.907Z,22.85
2023-04-20T03:19:35.921Z,22.86
2023-04-20T03:20:35.995Z,22.86
2023-04-20T03:21:36.018Z,22.85
2023-04-20T03:22:36.066Z,22.86
2023-04-20T03:23:36.122Z,22.85
2023-04-20T03:24:36.172Z,22.83
2023-04-20T03:25:36.209Z,22.88
2023-04-20T03:26:36.276Z,22.86
2023-04-20T03:27:36.332Z,22.86
2023-04-20T03:28:36.396Z,22.86
2023-04-20T03:29:36.439Z,22.86
2023-04-20T03:30:36.466Z,22.85
2023-04-20T03:31:36.606Z,22.83
2023-04-20T03:32:36.627Z,22.83
2023-04-20T03:33:36.627Z,22.86
2023-04-20T03:34:36.681Z,22.85
2023-04-20T03:35:36.739Z,22.83
2023-04-20T03:36:36.769Z,22.85
2023-04-20T03:37:36.930Z,22.85
2023-04-20T03:38:36.878Z,22.85
2023-04-20T03:39:36.925Z,22.83
2023-04-20T03:40:36.975Z,22.85
2023-04-20T03:41:37.023Z,22.83
2023-04-20T03:42:37.091Z,22.83
2023-04-20T03:43:37.138Z,22.83
2023-04-20T03:44:37.212Z,22.86
2023-04-20T03:45:37.265Z,22.85
2023-04-20T03:46:37.294Z,22.83
2023-04-20T03:47:37.386Z,22.83
2023-04-20T03:48:37.400Z,22.83
2023-04-20T03:49:37.469Z,22.83
2023-04-20T03:50:37.487Z,22.82
2023-04-20T03:51:37.536Z,22.85
2023-04-20T03:52:37.601Z,22.82
2023-04-20T03:53:39.406Z,22.82
2023-04-20T03:54:37.693Z,22.83
2023-04-20T03:55:37.704Z,22.82
2023-04-20T03:56:37.749Z,22.82
2023-04-20T03:57:37.787Z,22.82
2023-04-20T03:58:37.882Z,22.82
2023-04-20T03:59:37.874Z,22.82
2023-04-20T04:00:37.920Z,22.82
2023-04-20T04:01:37.954Z,22.80
2023-04-20T04:02:38.436Z,22.80
2023-04-20T04:03:38.261Z,22.82
2023-04-20T04:04:38.115Z,22.82
2023-04-20T04:05:38.132Z,22.80
2023-04-20T04:06:38.170Z,22.80
2023-04-20T04:07:38.205Z,22.82
2023-04-20T04:08:38.337Z,22.83
2023-04-20T04:09:38.304Z,22.80
2023-04-20T04:10:38.330Z,22.80
2023-04-20T04:11:38.378Z,22.82
2023-04-20T04:12:38.424Z,22.79
2023-04-20T04:13:38.519Z,22.79
2023-04-20T04:14:38.528Z,22.80
2023-04-20T04:15:38.554Z,22.82
2023-04-20T04:16:38.623Z,22.80
2023-04-20T04:17:38.650Z,22.79
2023-04-20T04:18:38.676Z,22.80
2023-04-20T04:19:38.705Z,22.79
2023-04-20T04:20:38.747Z,22.80
2023-04-20T04:21:38.784Z,22.80
2023-04-20T04:22:38.855Z,22.79
2023-04-20T04:23:38.866Z,22.80
2023-04-20T04:24:38.929Z,22.80
2023-04-20T04:25:38.970Z,22.82
2023-04-20T04:26:39.002Z,22.82
2023-04-20T04:27:39.029Z,22.79
2023-04-20T04:28:39.085Z,22.80
2023-04-20T04:29:39.100Z,22.78
2023-04-20T04:30:39.139Z,22.82
2023-04-20T04:31:39.289Z,22.80
2023-04-20T04:32:39.351Z,22.80
2023-04-20T04:33:39.380Z,22.80
2023-04-20T04:34:39.360Z,22.80
2023-04-20T04:35:39.378Z,22.78
2023-04-20T04:36:39.398Z,22.80
2023-04-20T04:37:39.465Z,22.79
2023-04-20T04:38:39.540Z,22.76
2023-04-20T04:39:39.534Z,22.79
2023-04-20T04:40:39.590Z,22.79
2023-04-20T04:41:39.632Z,22.78
2023-04-20T04:42:39.672Z,22.79
2023-04-20T04:43:39.737Z,22.78
2023-04-20T04:44:39.788Z,22.76
2023-04-20T04:45:39.937Z,22.78
2023-04-20T04:46:39.905Z,22.76
2023-04-20T04:47:39.975Z,22.76
2023-04-20T04:48:39.958Z,22.78
2023-04-20T04:49:39.987Z,22.79
2023-04-20T04:50:40.029Z,22.78
2023-04-20T04:51:40.076Z,22.79
2023-04-20T04:52:40.104Z,22.78
2023-04-20T04:53:40.164Z,22.78
2023-04-20T04:54:40.192Z,22.79
2023-04-20T04:55:40.243Z,22.78
2023-04-20T04:56:40.302Z,22.79
2023-04-20T04:57:40.347Z,22.78
2023-04-20T04:58:40.406Z,22.78
2023-04-20T04:59:40.476Z,22.78
2023-04-20T05:00:40.493Z,22.79
2023-04-20T05:01:40.660Z,22.78
2023-04-20T05:02:40.938Z,22.76
2023-04-20T05:03:40.797Z,22.78
2023-04-20T05:04:40.753Z,22.78
2023-04-20T05:05:40.724Z,22.78
2023-04-20T05:06:40.771Z,22.79
2023-04-20T05:07:40.825Z,22.76
2023-04-20T05:08:40.898Z,22.76
2023-04-20T05:09:40.925Z,22.78
2023-04-20T05:10:40.970Z,22.78
2023-04-20T05:11:41.009Z,22.78
2023-04-20T05:12:41.056Z,22.78
2023-04-20T05:13:41.135Z,22.78
2023-04-20T05:14:41.165Z,22.78
2023-04-20T05:15:43.360Z,22.78
2023-04-20T05:16:41.272Z,22.75
2023-04-20T05:17:41.246Z,22.78
2023-04-20T05:18:41.186Z,22.76
2023-04-20T05:19:41.169Z,22.76
2023-04-20T05:20:41.171Z,22.76
2023-04-20T05:21:41.174Z,22.76
2023-04-20T05:22:41.223Z,22.78
2023-04-20T05:23:41.226Z,22.75
2023-04-20T05:24:41.230Z,22.76
2023-04-20T05:25:41.212Z,22.79
2023-04-20T05:26:42.146Z,22.76
2023-04-20T05:27:41.175Z,22.79
2023-04-20T05:28:41.170Z,22.78
2023-04-20T05:29:41.113Z,22.79
2023-04-20T05:30:41.096Z,22.80
2023-04-20T05:31:41.127Z,22.82
2023-04-20T05:32:41.116Z,22.83
2023-04-20T05:33:41.621Z,22.86
2023-04-20T05:34:42.131Z,22.89
2023-04-20T05:35:41.089Z,22.92
2023-04-20T05:36:41.224Z,22.93
2023-04-20T05:37:41.113Z,22.92
2023-04-20T05:38:41.213Z,22.92
2023-04-20T05:39:41.048Z,22.88
2023-04-20T05:40:41.088Z,22.85
2023-04-20T05:41:41.067Z,22.85
2023-04-20T05:42:41.009Z,22.83
2023-04-20T05:43:41.043Z,22.80
2023-04-20T05:44:40.992Z,22.73
2023-04-20T05:45:41.073Z,22.69
2023-04-20T05:46:40.984Z,22.68
2023-04-20T05:47:41.018Z,22.68
2023-04-20T05:48:41.170Z,22.69
2023-04-20T05:49:40.998Z,22.68
2023-04-20T05:50:41.021Z,22.69
2023-04-20T05:51:40.994Z,22.75
2023-04-20T05:52:41.070Z,22.76
2023-04-20T05:53:41.030Z,22.82
2023-04-20T05:54:41.074Z,22.85
2023-04-20T05:55:41.141Z,22.91
2023-04-20T05:56:41.215Z,22.96
2023-04-20T05:57:41.215Z,23.03
2023-04-20T05:58:41.249Z,23.07
2023-04-20T05:59:41.241Z,23.09
2023-04-20T06:00:41.373Z,23.17
2023-04-20T06:01:41.274Z,23.25
2023-04-20T06:02:41.436Z,23.29
2023-04-20T06:03:41.552Z,23.33
2023-04-20T06:04:41.587Z,23.37
2023-04-20T06:05:41.509Z,23.40
2023-04-20T06:06:41.378Z,23.47
2023-04-20T06:07:41.374Z,23.49
2023-04-20T06:08:41.398Z,23.54
2023-04-20T06:09:41.394Z,23.57
2023-04-20T06:10:41.406Z,23.59
2023-04-20T06:11:41.557Z,23.63
2023-04-20T06:12:41.461Z,23.66
2023-04-20T06:13:41.441Z,23.70
2023-04-20T06:14:41.453Z,23.73
2023-04-20T06:15:41.578Z,23.74
2023-04-20T06:16:41.501Z,23.76
2023-04-20T06:17:41.733Z,23.77
2023-04-20T06:18:41.524Z,23.77
2023-04-20T06:19:41.503Z,23.81
2023-04-20T06:20:41.526Z,23.83
2023-04-20T06:21:41.537Z,23.83
2023-04-20T06:22:41.670Z,23.85
2023-04-20T06:23:41.525Z,23.83
2023-04-20T06:24:41.533Z,23.87
2023-04-20T06:25:41.597Z,23.91
2023-04-20T06:26:41.529Z,23.90
2023-04-20T06:27:41.548Z,23.91
2023-04-20T06:28:41.540Z,23.94
2023-04-20T06:29:41.572Z,23.91
2023-04-20T06:30:41.544Z,23.93
2023-04-20T06:31:41.520Z,23.91
2023-04-20T06:32:42.201Z,23.94
2023-04-20T06:33:41.532Z,23.94
2023-04-20T06:34:41.483Z,23.94
2023-04-20T06:35:41.492Z,23.94
2023-04-20T06:36:41.485Z,23.93
2023-04-20T06:37:41.491Z,23.88
2023-04-20T06:38:41.558Z,23.84
2023-04-20T06:39:41.524Z,23.79
2023-04-20T06:40:41.508Z,23.76
2023-04-20T06:41:41.508Z,23.71
2023-04-20T06:42:41.563Z,23.67
2023-04-20T06:43:41.632Z,23.67
2023-04-20T06:44:41.524Z,23.63
2023-04-20T06:45:41.562Z,23.60
2023-04-20T06:46:41.654Z,23.60
2023-04-20T06:47:41.801Z,23.57
2023-04-20T06:48:41.626Z,23.54
2023-04-20T06:49:41.596Z,23.54
2023-04-20T06:50:41.638Z,23.50
2023-04-20T06:51:41.640Z,23.50
2023-04-20T06:52:41.670Z,23.52
2023-04-20T06:53:42.132Z,23.50
2023-04-20T06:54:41.705Z,23.50
2023-04-20T06:55:41.678Z,23.46
2023-04-20T06:56:41.683Z,23.47
2023-04-20T06:57:41.715Z,23.47
2023-04-20T06:58:42.117Z,23.46
2023-04-20T06:59:41.832Z,23.45
2023-04-20T07:00:41.772Z,23.43
2023-04-20T07:01:41.853Z,23.45
2023-04-20T07:02:41.816Z,23.46
2023-04-20T07:03:41.932Z,23.40
2023-04-20T07:04:41.850Z,23.45
2023-04-20T07:05:41.869Z,23.43
2023-04-20T07:06:41.815Z,23.43
2023-04-20T07:07:41.860Z,23.45
2023-04-20T07:08:41.852Z,23.46
2023-04-20T07:09:41.875Z,23.43
2023-04-20T07:10:41.874Z,23.47
2023-04-20T07:11:41.902Z,23.45
2023-04-20T07:12:43.519Z,23.46
2023-04-20T07:13:41.956Z,23.46
2023-04-20T07:14:41.960Z,23.49
2023-04-20T07:15:41.976Z,23.46
2023-04-20T07:16:42.095Z,23.47
2023-04-20T07:17:42.046Z,23.47
2023-04-20T07:18:42.001Z,23.47
2023-04-20T07:19:42.002Z,23.45
2023-04-20T07:20:42.030Z,23.46
2023-04-20T07:21:42.035Z,23.47
2023-04-20T07:22:42.061Z,23.46
2023-04-20T07:23:43.361Z,23.47
2023-04-20T07:24:42.075Z,23.49
2023-04-20T07:25:42.070Z,23.49
2023-04-20T07:26:42.087Z,23.49
2023-04-20T07:27:42.048Z,23.49
2023-04-20T07:28:42.064Z,23.46
2023-04-20T07:29:42.132Z,23.49
2023-04-20T07:30:42.057Z,23.47
2023-04-20T07:31:42.076Z,23.52
2023-04-20T07:32:42.087Z,23.56
2023-04-20T07:33:42.066Z,23.60
2023-04-20T07:34:42.108Z,23.61
2023-04-20T07:35:41.993Z,23.70
2023-04-20T07:36:42.017Z,23.76
2023-04-20T07:37:41.997Z,23.79
2023-04-20T07:38:42.000Z,23.85
2023-04-20T07:39:41.961Z,23.90
2023-04-20T07:40:41.981Z,23.90
2023-04-20T07:41:41.952Z,23.97
2023-04-20T07:42:42.000Z,23.99
2023-04-20T07:43:42.005Z,24.03
2023-04-20T07:44:42.011Z,24.03
2023-04-20T07:45:41.966Z,24.05
2023-04-20T07:46:41.955Z,24.10
2023-04-20T07:47:41.999Z,24.17
2023-04-20T07:48:41.946Z,24.18
2023-04-20T07:49:42.124Z,24.21
2023-04-20T07:50:41.912Z,24.25
2023-04-20T07:51:41.894Z,24.28
2023-04-20T07:52:41.909Z,24.32
2023-04-20T07:53:41.924Z,24.38
2023-04-20T07:54:41.913Z,24.39
2023-04-20T07:55:41.907Z,24.42
2023-04-20T07:56:41.882Z,24.45
2023-04-20T07:57:41.846Z,24.48
2023-04-20T07:58:41.858Z,24.51
2023-04-20T07:59:41.832Z,24.54
2023-04-20T08:00:41.849Z,24.55
2023-04-20T08:01:41.812Z,24.58
2023-04-20T08:02:41.962Z,24.61
2023-04-20T08:03:41.974Z,24.62
2023-04-20T08:04:42.531Z,24.65
2023-04-20T08:05:41.885Z,24.65
2023-04-20T08:06:41.765Z,24.71
2023-04-20T08:07:41.754Z,24.71
2023-04-20T08:08:41.790Z,24.72
2023-04-20T08:09:41.911Z,24.74
2023-04-20T08:10:41.767Z,24.77
2023-04-20T08:11:41.739Z,24.78
2023-04-20T08:12:41.914Z,24.79
2023-04-20T08:13:41.729Z,24.83
2023-04-20T08:14:41.760Z,24.83
2023-04-20T08:15:41.746Z,24.86
2023-04-20T08:16:41.752Z,24.86
2023-04-20T08:17:41.832Z,24.88
2023-04-20T08:18:42.548Z,24.89
2023-04-20T08:19:43.759Z,24.91
2023-04-20T08:20:41.702Z,24.88
2023-04-20T08:21:41.684Z,24.95
2023-04-20T08:22:41.689Z,24.92
2023-04-20T08:23:41.656Z,24.96
2023-04-20T08:24:42.137Z,24.93
2023-04-20T08:25:41.699Z,24.95
2023-04-20T08:26:41.628Z,24.98
2023-04-20T08:27:41.628Z,24.99
2023-04-20T08:28:41.662Z,24.98
2023-04-20T08:29:41.672Z,24.98
2023-04-20T08:30:41.888Z,24.95
2023-04-20T08:31:41.608Z,24.92
2023-04-20T08:32:41.673Z,24.91
2023-04-20T08:33:41.594Z,24.86
2023-04-20T08:34:41.604Z,24.86
2023-04-20T08:35:41.571Z,24.82
2023-04-20T08:36:41.602Z,24.81
2023-04-20T08:37:41.543Z,24.81
2023-04-20T08:38:41.569Z,24.74
2023-04-20T08:39:41.541Z,24.75
2023-04-20T08:40:41.539Z,24.69
2023-04-20T08:41:41.551Z,24.69
2023-04-20T08:42:41.577Z,24.67
2023-04-20T08:43:41.525Z,24.68
2023-04-20T08:44:41.662Z,24.65
2023-04-20T08:45:41.505Z,24.62
2023-04-20T08:46:41.554Z,24.62
2023-04-20T08:47:41.549Z,24.64
2023-04-20T08:48:41.468Z,24.65
2023-04-20T08:49:41.632Z,24.64
2023-04-20T08:50:41.441Z,24.65
2023-04-20T08:51:41.461Z,24.64
2023-04-20T08:52:41.437Z,24.61
2023-04-20T08:53:41.444Z,24.61
2023-04-20T08:54:55.342Z,24.59
2023-04-20T08:55:42.407Z,24.58
2023-04-20T08:56:41.407Z,24.59
2023-04-20T08:57:41.429Z,24.58
2023-04-20T08:58:41.435Z,24.58
2023-04-20T08:59:41.420Z,24.58
2023-04-20T09:00:41.362Z,24.52
2023-04-20T09:01:41.409Z,24.55
2023-04-20T09:02:41.463Z,24.51
2023-04-20T09:03:41.525Z,24.54
2023-04-20T09:04:41.606Z,24.54
2023-04-20T09:05:41.548Z,24.54
2023-04-20T09:06:41.518Z,24.51
2023-04-20T09:07:41.613Z,24.54
2023-04-20T09:08:41.619Z,24.54
2023-04-20T09:09:41.686Z,24.51
2023-04-20T09:10:41.714Z,24.50
2023-04-20T09:11:41.786Z,24.48
2023-04-20T09:12:41.815Z,24.51
2023-04-20T09:13:42.086Z,24.48
2023-04-20T09:14:42.155Z,24.47
2023-04-20T09:15:41.943Z,24.48
2023-04-20T09:16:41.999Z,24.47
2023-04-20T09:17:42.695Z,24.48
2023-04-20T09:18:42.184Z,24.45
2023-04-20T09:19:42.119Z,24.48
2023-04-20T09:20:42.175Z,24.44
2023-04-20T09:21:42.215Z,24.47
2023-04-20T09:22:42.264Z,24.44
2023-04-20T09:23:42.331Z,24.44
2023-04-20T09:24:42.520Z,24.44
2023-04-20T09:25:42.459Z,24.47
2023-04-20T09:26:42.460Z,24.44
2023-04-20T09:27:42.536Z,24.41
2023-04-20T09:28:42.557Z,24.34
2023-04-20T09:29:42.613Z,24.39
2023-04-20T09:30:42.664Z,24.41
2023-04-20T09:31:42.743Z,24.44
2023-04-20T09:32:42.803Z,24.47
2023-04-20T09:33:42.815Z,24.52
2023-04-20T09:34:43.193Z,24.64
2023-04-20T09:35:42.849Z,24.71
2023-04-20T09:36:42.866Z,24.72
2023-04-20T09:37:42.929Z,24.71
2023-04-20T09:38:43.036Z,24.65
2023-04-20T09:39:43.164Z,24.62
2023-04-20T09:40:42.972Z,24.62
2023-04-20T09:41:43.025Z,24.59
2023-04-20T09:42:43.079Z,24.58
2023-04-20T09:43:43.141Z,24.58
2023-04-20T09:44:43.174Z,24.55
2023-04-20T09:45:43.296Z,24.51
2023-04-20T09:46:43.220Z,24.52
2023-04-20T09:47:43.273Z,24.51
2023-04-20T09:48:43.290Z,24.51
2023-04-20T09:49:43.329Z,24.50
2023-04-20T09:50:49.624Z,24.47
2023-04-20T09:51:44.383Z,24.48
2023-04-20T09:52:43.371Z,24.45
2023-04-20T09:53:43.385Z,24.47
2023-04-20T09:54:43.406Z,24.47
2023-04-20T09:55:43.330Z,24.47
2023-04-20T09:56:43.335Z,24.48
2023-04-20T09:57:43.313Z,24.47
2023-04-20T09:58:43.336Z,24.42
2023-04-20T09:59:43.332Z,24.45
2023-04-20T10:00:43.327Z,24.47
2023-04-20T10:01:43.542Z,24.44
2023-04-20T10:02:43.385Z,24.42
2023-04-20T10:03:43.501Z,24.42
2023-04-20T10:04:43.490Z,24.42
2023-04-20T10:05:43.403Z,24.39
2023-04-20T10:06:43.427Z,24.41
2023-04-20T10:07:43.488Z,24.41
2023-04-20T10:08:43.558Z,24.41
2023-04-20T10:09:43.606Z,24.41
2023-04-20T10:10:43.604Z,24.39
2023-04-20T10:11:52.326Z,24.42
2023-04-20T10:12:44.656Z,24.44
2023-04-20T10:13:43.638Z,24.44
2023-04-20T10:14:43.684Z,24.47
2023-04-20T10:15:43.731Z,24.47
2023-04-20T10:16:43.676Z,24.47
2023-04-20T10:17:44.046Z,24.52
2023-04-20T10:18:43.722Z,24.54
2023-04-20T10:19:43.665Z,24.54
2023-04-20T10:20:43.641Z,24.57
2023-04-20T10:21:43.602Z,24.59
2023-04-20T10:22:43.604Z,24.62
2023-04-20T10:23:43.572Z,24.65
2023-04-20T10:24:43.591Z,24.65
2023-04-20T10:25:43.619Z,24.67
2023-04-20T10:26:43.625Z,24.59
2023-04-20T10:27:43.680Z,24.62
2023-04-20T10:28:43.701Z,24.64
2023-04-20T10:29:44.196Z,24.67
2023-04-20T10:30:43.775Z,24.72
2023-04-20T10:31:43.820Z,24.72
2023-04-20T10:32:43.861Z,24.78
2023-04-20T10:33:43.996Z,24.79
2023-04-20T10:34:44.197Z,24.79
2023-04-20T10:35:45.793Z,24.81
2023-04-20T10:36:44.033Z,24.83
2023-04-20T10:37:43.950Z,24.86
2023-04-20T10:38:43.954Z,24.83
2023-04-20T10:39:44.183Z,24.86
2023-04-20T10:40:44.021Z,24.85
2023-04-20T10:41:44.712Z,24.91
2023-04-20T10:42:44.083Z,24.89
2023-04-20T10:43:44.686Z,24.91
2023-04-20T10:44:44.192Z,24.92
2023-04-20T10:45:44.159Z,24.89
2023-04-20T10:46:44.213Z,24.93
2023-04-20T10:47:44.229Z,24.93
2023-04-20T10:48:44.193Z,24.92
2023-04-20T10:49:44.329Z,24.93
2023-04-20T10:50:44.256Z,24.95
2023-04-20T10:51:44.264Z,24.98
2023-04-20T10:52:44.275Z,24.95
2023-04-20T10:53:44.385Z,24.95
2023-04-20T10:54:44.352Z,24.98
2023-04-20T10:55:44.426Z,24.98
2023-04-20T10:56:44.374Z,24.96
2023-04-20T10:57:44.400Z,24.99
2023-04-20T10:58:44.400Z,25.01
2023-04-20T10:59:44.462Z,25.01
2023-04-20T11:00:44.482Z,24.99
2023-04-20T11:01:44.583Z,24.99
2023-04-20T11:02:44.609Z,25.03
2023-04-20T11:03:44.733Z,25.01
2023-04-20T11:04:44.744Z,25.05
2023-04-20T11:05:44.647Z,25.03
2023-04-20T11:06:44.587Z,25.03
2023-04-20T11:07:44.610Z,25.02
2023-04-20T11:08:44.623Z,25.05
2023-04-20T11:09:44.679Z,25.05
2023-04-20T11:10:44.706Z,25.08
2023-04-20T11:11:44.693Z,25.08
2023-04-20T11:12:44.704Z,25.06
2023-04-20T11:13:44.713Z,25.11
2023-04-20T11:14:44.803Z,25.11
2023-04-20T11:15:44.732Z,25.12
2023-04-20T11:16:49.724Z,25.15
2023-04-20T11:17:45.823Z,25.19
2023-04-20T11:18:44.774Z,25.18
2023-04-20T11:19:45.305Z,25.18
2023-04-20T11:20:44.727Z,25.18
2023-04-20T11:21:44.715Z,25.16
2023-04-20T11:22:44.776Z,25.12
2023-04-20T11:23:44.692Z,25.12
2023-04-20T11:24:44.734Z,25.13
2023-04-20T11:25:44.688Z,25.09
2023-04-20T11:26:44.705Z,25.06
2023-04-20T11:27:44.667Z,25.03
2023-04-20T11:28:44.677Z,25.03
2023-04-20T11:29:44.669Z,25.02
2023-04-20T11:30:44.689Z,25.01
2023-04-20T11:31:44.693Z,24.96
2023-04-20T11:32:44.869Z,24.98
2023-04-20T11:33:44.656Z,24.93
2023-04-20T11:34:48.007Z,24.92
2023-04-20T11:35:45.621Z,24.92
2023-04-20T11:36:44.636Z,24.91
2023-04-20T11:37:44.608Z,24.88
2023-04-20T11:38:44.604Z,24.88
2023-04-20T11:39:44.710Z,24.88
2023-04-20T11:40:44.590Z,24.85
2023-04-20T11:41:44.577Z,24.85
2023-04-20T11:42:44.616Z,24.85
2023-04-20T11:43:44.572Z,24.85
2023-04-20T11:44:44.703Z,24.86
2023-04-20T11:45:44.563Z,24.81
2023-04-20T11:46:44.541Z,24.82
2023-04-20T11:47:44.584Z,24.82
2023-04-20T11:48:44.549Z,24.82
2023-04-20T11:49:44.736Z,24.79
2023-04-20T11:50:44.514Z,24.81
2023-04-20T11:51:44.558Z,24.78
2023-04-20T11:52:44.524Z,24.79
2023-04-20T11:53:44.576Z,24.77
2023-04-20T11:54:44.788Z,24.77
2023-04-20T11:55:44.513Z,24.75
2023-04-20T11:56:44.522Z,24.78
2023-04-20T11:57:44.553Z,24.77
2023-04-20T11:58:44.556Z,24.78
2023-04-20T11:59:44.715Z,24.75
2023-04-20T12:00:44.600Z,24.77
2023-04-20T12:01:44.662Z,24.77
2023-04-20T12:02:44.733Z,24.74
2023-04-20T12:03:47.629Z,24.75
2023-04-20T12:04:44.825Z,24.74
2023-04-20T12:05:44.761Z,24.77
2023-04-20T12:06:44.666Z,24.74
2023-04-20T12:07:44.659Z,24.75
2023-04-20T12:08:44.666Z,24.75
2023-04-20T12:09:44.654Z,24.75
2023-04-20T12:10:44.602Z,24.75
2023-04-20T12:11:44.619Z,24.75
2023-04-20T12:12:44.620Z,24.72
2023-04-20T12:13:44.603Z,24.74
2023-04-20T12:14:44.741Z,24.75
2023-04-20T12:15:44.629Z,24.75
2023-04-20T12:16:44.549Z,24.77
2023-04-20T12:17:44.604Z,24.75
2023-04-20T12:18:44.549Z,24.75
2023-04-20T12:19:44.571Z,24.75
2023-04-20T12:20:44.599Z,24.78
2023-04-20T12:21:44.524Z,24.78
2023-04-20T12:22:44.514Z,24.77
2023-04-20T12:23:44.521Z,24.75
2023-04-20T12:24:44.498Z,24.77
2023-04-20T12:25:44.526Z,24.77
2023-04-20T12:26:44.539Z,24.75
2023-04-20T12:27:44.492Z,24.75
2023-04-20T12:28:44.471Z,24.77
2023-04-20T12:29:44.466Z,24.75
2023-04-20T12:30:44.498Z,24.78
2023-04-20T12:31:44.483Z,24.77
2023-04-20T12:32:44.474Z,24.75
2023-04-20T12:33:44.456Z,24.75
2023-04-20T12:34:44.454Z,24.74
2023-04-20T12:35:44.419Z,24.75
2023-04-20T12:36:44.414Z,24.74
2023-04-20T12:37:44.442Z,24.75
2023-04-20T12:38:44.408Z,24.77
2023-04-20T12:39:44.435Z,24.72
2023-04-20T12:40:44.406Z,24.75
2023-04-20T12:41:44.415Z,24.74
2023-04-20T12:42:44.400Z,24.74
2023-04-20T12:43:44.390Z,24.74
2023-04-20T12:44:44.379Z,24.74
2023-04-20T12:45:44.369Z,24.74
2023-04-20T12:46:44.392Z,24.75
2023-04-20T12:47:44.397Z,24.74
2023-04-20T12:48:44.369Z,24.71
2023-04-20T12:49:44.368Z,24.72
2023-04-20T12:50:44.341Z,24.71
2023-04-20T12:51:44.336Z,24.71
2023-04-20T12:52:44.312Z,24.74